Time,TemperatureF,DewpointF,PressureIn,WindDirection,WindDirectionDegrees,WindSpeedMPH,WindSpeedGustMPH,Humidity,HourlyPrecipIn,Conditions,Clouds,dailyrainin,SoftwareType,DateUTC
2013-03-30 00:13:00,48.2,28.0,30.14,West,259,7.0,-999.0,45,-99.99,,,0.00,weatherlink.com 1.10,2013-03-30 06:13:00,
2013-03-30 00:28:00,48.2,27.0,30.14,West,266,11.0,-999.0,44,-99.99,,,0.00,weatherlink.com 1.10,2013-03-30 06:28:00,
2013-03-30 00:43:00,48.0,27.0,30.14,WNW,296,9.0,-999.0,44,-99.99,,,0.00,weatherlink.com 1.10,2013-03-30 06:43:00,
2013-03-30 00:58:00,48.1,27.0,30.14,WSW,257,11.0,-999.0,44,-99.99,,,0.00,weatherlink.com 1.10,2013-03-30 06:58:00,
2013-03-30 01:13:00,48.3,27.0,30.14,West,269,10.0,-999.0,43,-99.99,,,0.00,weatherlink.com 1.10,2013-03-30 07:13:00,
2013-03-30 01:28:00,48.2,27.0,30.14,WSW,252,10.0,-999.0,44,-99.99,,,0.00,weatherlink.com 1.10,2013-03-30 07:28:00,
2013-03-30 01:43:00,48.5,27.0,30.14,WSW,244,7.0,-999.0,43,-99.99,,,0.00,weatherlink.com 1.10,2013-03-30 07:43:00,
2013-03-30 01:58:00,46.1,27.0,30.15,NNE,19,9.0,-999.0,47,-99.99,,,0.00,weatherlink.com 1.10,2013-03-30 07:58:00,
2013-03-30 02:13:00,42.8,27.0,30.15,NNE,28,3.0,-999.0,53,-99.99,,,0.00,weatherlink.com 1.10,2013-03-30 08:13:00,
2013-03-30 02:28:00,42.4,27.0,30.14,NNW,346,3.0,-999.0,55,-99.99,,,0.00,weatherlink.com 1.10,2013-03-30 08:28:00,
2013-03-30 02:43:00,41.9,27.0,30.14,NW,312,6.0,-999.0,56,-99.99,,,0.00,weatherlink.com 1.10,2013-03-30 08:43:00,
2013-03-30 02:58:00,42.0,29.0,30.14,NNW,338,2.0,-999.0,60,-99.99,,,0.00,weatherlink.com 1.10,2013-03-30 08:58:00,
2013-03-30 03:13:00,42.2,29.0,30.14,WNW,303,0.0,-999.0,60,-99.99,,,0.00,weatherlink.com 1.10,2013-03-30 09:13:00,
2013-03-30 03:28:00,41.8,28.0,30.14,WNW,290,5.0,-999.0,59,-99.99,,,0.00,weatherlink.com 1.10,2013-03-30 09:28:00,
2013-03-30 03:43:00,40.6,28.0,30.14,WSW,256,4.0,-999.0,62,-99.99,,,0.00,weatherlink.com 1.10,2013-03-30 09:43:00,
2013-03-30 03:58:00,40.6,29.0,30.14,WNW,294,6.0,-999.0,63,-99.99,,,0.00,weatherlink.com 1.10,2013-03-30 09:58:00,
2013-03-30 04:13:00,41.2,29.0,30.12,SE,144,0.0,-999.0,63,-99.99,,,0.00,weatherlink.com 1.10,2013-03-30 10:13:00,
2013-03-30 04:28:00,41.3,29.0,30.13,SW,235,5.0,-999.0,62,-99.99,,,0.00,weatherlink.com 1.10,2013-03-30 10:28:00,
2013-03-30 04:43:00,40.9,29.0,30.13,WNW,295,0.0,-999.0,62,-99.99,,,0.00,weatherlink.com 1.10,2013-03-30 10:43:00,
2013-03-30 04:58:00,40.6,28.0,30.13,WSW,254,3.0,-999.0,62,-99.99,,,0.00,weatherlink.com 1.10,2013-03-30 10:58:00,
2013-03-30 05:13:00,40.2,28.0,30.14,West,267,3.0,-999.0,63,-99.99,,,0.00,weatherlink.com 1.10,2013-03-30 11:13:00,
2013-03-30 05:28:00,39.8,28.0,30.14,NNW,342,4.0,-999.0,64,-99.99,,,0.00,weatherlink.com 1.10,2013-03-30 11:28:00,
2013-03-30 05:43:00,39.1,29.0,30.14,WNW,284,9.0,-999.0,67,-99.99,,,0.00,weatherlink.com 1.10,2013-03-30 11:43:00,
2013-03-30 05:58:00,39.4,30.0,30.14,WNW,289,0.0,-999.0,68,-99.99,,,0.00,weatherlink.com 1.10,2013-03-30 11:58:00,
2013-03-30 06:13:00,40.2,29.0,30.14,West,262,2.0,-999.0,65,-99.99,,,0.00,weatherlink.com 1.10,2013-03-30 12:13:00,
2013-03-30 06:28:00,40.2,29.0,30.14,WSW,252,6.0,-999.0,64,-99.99,,,0.00,weatherlink.com 1.10,2013-03-30 12:28:00,
2013-03-30 06:43:00,40.2,29.0,30.14,West,273,6.0,-999.0,64,-99.99,,,0.00,weatherlink.com 1.10,2013-03-30 12:43:00,
2013-03-30 06:58:00,40.2,29.0,30.14,SW,231,4.0,-999.0,64,-99.99,,,0.00,weatherlink.com 1.10,2013-03-30 12:58:00,
2013-03-30 07:13:00,40.9,29.0,30.14,WNW,284,4.0,-999.0,64,-99.99,,,0.00,weatherlink.com 1.10,2013-03-30 13:13:00,
2013-03-30 07:28:00,41.6,30.0,30.15,West,259,5.0,-999.0,63,-99.99,,,0.00,weatherlink.com 1.10,2013-03-30 13:28:00,
2013-03-30 07:43:00,42.3,30.0,30.15,WSW,244,1.0,-999.0,62,-99.99,,,0.00,weatherlink.com 1.10,2013-03-30 13:43:00,
2013-03-30 07:58:00,43.5,31.0,30.15,West,272,3.0,-999.0,61,-99.99,,,0.00,weatherlink.com 1.10,2013-03-30 13:58:00,
2013-03-30 08:13:00,44.6,32.0,30.15,West,267,4.0,-999.0,61,-99.99,,,0.00,weatherlink.com 1.10,2013-03-30 14:13:00,
2013-03-30 08:28:00,45.9,32.0,30.15,West,264,2.0,-999.0,58,-99.99,,,0.00,weatherlink.com 1.10,2013-03-30 14:28:00,
2013-03-30 08:43:00,47.1,31.0,30.16,SE,138,1.0,-999.0,54,-99.99,,,0.00,weatherlink.com 1.10,2013-03-30 14:43:00,
2013-03-30 08:58:00,48.1,31.0,30.15,ESE,112,3.0,-999.0,52,-99.99,,,0.00,weatherlink.com 1.10,2013-03-30 14:58:00,